createdAt,value
2019-02-14T00:00:27.911Z,71.60
2019-02-14T00:02:57.625Z,75.93
2019-02-14T00:05:27.231Z,72.70
2019-02-14T00:07:57.223Z,76.27
2019-02-14T00:10:26.449Z,72.70
2019-02-14T00:12:56.097Z,77.10
2019-02-14T00:15:25.632Z,71.30
2019-02-14T00:17:54.833Z,80.33
2019-02-14T00:20:24.315Z,69.23
2019-02-14T00:22:53.607Z,76.23
2019-02-14T00:25:22.766Z,75.43
2019-02-14T00:27:51.922Z,85.33
2019-02-14T00:30:21.505Z,71.17
2019-02-14T00:32:50.928Z,72.80
2019-02-14T00:35:25.145Z,67.27
2019-02-14T00:37:50.948Z,69.07
2019-02-14T00:40:20.808Z,68.00
2019-02-14T00:42:50.507Z,75.50
2019-02-14T00:45:19.727Z,69.83
2019-02-14T00:47:48.900Z,72.77
2019-02-14T00:50:18.494Z,74.30
2019-02-14T00:52:47.634Z,83.07
2019-02-14T00:55:16.927Z,77.03
2019-02-14T00:57:46.194Z,70.47
2019-02-14T01:00:15.689Z,69.67
2019-02-14T01:02:45.674Z,73.50
2019-02-14T01:05:16.401Z,69.20
2019-02-14T01:07:45.920Z,62.87
2019-02-14T01:10:15.401Z,77.60
2019-02-14T01:12:44.568Z,67.30
2019-02-14T01:15:15.239Z,64.67
2019-02-14T01:17:44.389Z,73.93
2019-02-14T01:20:13.825Z,66.63
2019-02-14T01:22:43.115Z,66.30
2019-02-14T01:25:14.164Z,73.47
2019-02-14T01:27:43.330Z,67.53
2019-02-14T01:30:14.559Z,65.47
2019-02-14T01:32:44.115Z,62.50
2019-02-14T01:35:15.132Z,72.90
2019-02-14T01:37:44.430Z,71.70
2019-02-14T01:40:13.870Z,67.10
2019-02-14T01:42:43.033Z,72.73
2019-02-14T01:45:12.680Z,73.17
2019-02-14T01:47:41.805Z,64.10
2019-02-14T01:50:11.440Z,67.20
2019-02-14T01:52:40.989Z,68.93
2019-02-14T01:55:10.475Z,70.13
2019-02-14T01:57:39.700Z,76.80
2019-02-14T02:00:12.194Z,73.20
2019-02-14T02:02:41.359Z,64.80
2019-02-14T02:05:10.536Z,79.67
2019-02-14T02:07:40.064Z,75.83
2019-02-14T02:10:10.796Z,72.90
2019-02-14T02:12:40.559Z,73.50
2019-02-14T02:15:11.660Z,81.40
2019-02-14T02:17:41.207Z,71.50
2019-02-14T02:20:10.779Z,74.87
2019-02-14T02:22:40.062Z,69.57
2019-02-14T02:25:10.041Z,79.07
2019-02-14T02:27:39.225Z,70.13
2019-02-14T02:30:10.797Z,72.40
2019-02-14T02:32:40.318Z,68.43
2019-02-14T02:35:09.885Z,74.80
2019-02-14T02:37:39.113Z,69.10
2019-02-14T02:40:09.248Z,69.47
2019-02-14T02:42:38.423Z,70.10
2019-02-14T02:45:09.324Z,73.67
2019-02-14T02:47:38.471Z,75.20
2019-02-14T02:50:09.606Z,68.30
2019-02-14T02:52:38.791Z,75.40
2019-02-14T02:55:08.971Z,80.95
2019-02-14T02:57:38.140Z,81.90
2019-02-14T03:00:13.546Z,68.40
2019-02-14T03:02:42.749Z,78.43
2019-02-14T03:05:13.098Z,76.70
2019-02-14T03:07:42.614Z,81.23
2019-02-14T03:10:12.541Z,82.00
2019-02-14T03:12:41.747Z,75.47
2019-02-14T03:15:12.494Z,89.57
2019-02-14T03:17:41.681Z,80.10
2019-02-14T03:20:11.354Z,80.23
2019-02-14T03:22:40.641Z,83.73
2019-02-14T03:25:12.890Z,67.93
2019-02-14T03:27:42.011Z,74.83
2019-02-14T03:30:12.087Z,88.07
2019-02-14T03:32:41.257Z,96.10
2019-02-14T03:35:10.765Z,83.83
2019-02-14T03:37:39.938Z,89.50
2019-02-14T03:40:10.514Z,79.83
2019-02-14T03:42:39.802Z,80.67
2019-02-14T03:45:11.988Z,84.73
2019-02-14T03:47:41.325Z,83.27
2019-02-14T03:50:10.822Z,94.77
2019-02-14T03:52:40.023Z,91.27
2019-02-14T03:55:09.469Z,86.37
2019-02-14T03:57:39.035Z,88.93
2019-02-14T04:00:11.648Z,84.55
2019-02-14T04:02:40.826Z,90.83
2019-02-14T04:05:10.006Z,88.63
2019-02-14T04:07:39.611Z,89.97
2019-02-14T04:10:10.370Z,91.70
2019-02-14T04:12:39.530Z,89.87
2019-02-14T04:15:10.886Z,85.70
2019-02-14T04:17:40.069Z,85.60
2019-02-14T04:20:09.346Z,102.27
2019-02-14T04:22:38.536Z,104.77
2019-02-14T04:25:08.840Z,87.12
2019-02-14T04:27:38.117Z,90.63
2019-02-14T04:30:08.221Z,94.53
2019-02-14T04:32:37.351Z,94.83
2019-02-14T04:35:07.501Z,91.17
2019-02-14T04:37:37.063Z,112.77
2019-02-14T04:40:07.605Z,89.43
2019-02-14T04:42:36.844Z,96.90
2019-02-14T04:45:06.919Z,85.63
2019-02-14T04:47:36.089Z,94.00
2019-02-14T04:50:05.599Z,105.00
2019-02-14T04:52:34.754Z,113.93
2019-02-14T04:55:04.065Z,104.10
2019-02-14T04:57:33.629Z,98.73
2019-02-14T05:00:02.813Z,91.80
2019-02-14T05:02:31.988Z,96.43
2019-02-14T05:05:01.738Z,94.90
2019-02-14T05:07:31.361Z,97.37
2019-02-14T05:10:00.851Z,98.60
2019-02-14T05:12:30.318Z,114.17
2019-02-14T05:14:59.522Z,88.63
2019-02-14T05:17:28.712Z,99.03
2019-02-14T05:19:57.866Z,95.57
2019-02-14T05:22:27.305Z,109.50
2019-02-14T05:24:56.582Z,95.30
2019-02-14T05:27:25.753Z,99.30
2019-02-14T05:29:55.228Z,95.40
2019-02-14T05:32:24.802Z,100.83
2019-02-14T05:34:54.074Z,96.00
2019-02-14T05:37:23.887Z,95.43
2019-02-14T05:39:53.391Z,95.80
2019-02-14T05:42:22.569Z,94.23
2019-02-14T05:44:51.768Z,98.73
2019-02-14T05:47:21.296Z,85.63
2019-02-14T05:49:50.432Z,85.47
2019-02-14T05:52:19.996Z,94.50
2019-02-14T05:54:49.510Z,94.87
2019-02-14T05:57:18.713Z,102.22
2019-02-14T05:59:49.922Z,87.90
2019-02-14T06:02:19.887Z,101.33
2019-02-14T06:04:49.408Z,114.70
2019-02-14T06:07:18.588Z,111.60
2019-02-14T06:09:48.101Z,99.40
2019-02-14T06:12:17.256Z,104.90
2019-02-14T06:14:46.447Z,111.73
2019-02-14T06:17:15.985Z,97.20
2019-02-14T06:19:45.557Z,103.57
2019-02-14T06:22:14.996Z,97.80
2019-02-14T06:24:44.180Z,105.90
2019-02-14T06:27:13.700Z,108.47
2019-02-14T06:29:42.898Z,84.00
2019-02-14T06:32:12.071Z,102.50
2019-02-14T06:34:41.264Z,90.30
2019-02-14T06:37:10.461Z,99.83
2019-02-14T06:39:40.002Z,98.80
2019-02-14T06:42:09.572Z,96.70
2019-02-14T06:44:39.390Z,92.23
2019-02-14T06:47:08.575Z,99.87
2019-02-14T06:49:37.773Z,83.30
2019-02-14T06:52:06.977Z,84.73
2019-02-14T06:54:36.534Z,86.50
2019-02-14T06:57:05.724Z,78.12
2019-02-14T06:59:34.890Z,86.90
2019-02-14T07:02:04.058Z,82.87
2019-02-14T07:04:33.540Z,87.90
2019-02-14T07:07:03.296Z,84.67
2019-02-14T07:09:34.349Z,64.80
2019-02-14T07:12:03.934Z,74.77
2019-02-14T07:14:33.665Z,67.57
2019-02-14T07:17:04.266Z,75.43
2019-02-14T07:19:33.481Z,76.50
2019-02-14T07:22:02.943Z,67.03
2019-02-14T07:24:32.139Z,62.53
2019-02-14T07:27:01.508Z,66.83
2019-02-14T07:29:31.690Z,58.33
2019-02-14T07:32:01.200Z,63.87
2019-02-14T07:34:30.419Z,60.57
2019-02-14T07:37:00.246Z,64.93
2019-02-14T07:39:30.983Z,55.83
2019-02-14T07:42:00.290Z,64.47
2019-02-14T07:44:29.831Z,61.23
2019-02-14T07:46:59.274Z,56.00
2019-02-14T07:49:28.491Z,53.83
2019-02-14T07:51:58.154Z,57.00
2019-02-14T07:54:27.320Z,58.70
2019-02-14T07:56:56.522Z,44.70
2019-02-14T07:59:25.709Z,57.63
2019-02-14T08:01:55.143Z,55.10
2019-02-14T08:04:24.656Z,50.13
2019-02-14T08:06:54.377Z,53.87
2019-02-14T08:09:23.535Z,50.93
2019-02-14T08:11:53.032Z,50.43
2019-02-14T08:14:22.589Z,53.70
2019-02-14T08:16:51.755Z,42.77
2019-02-14T08:19:20.875Z,44.93
2019-02-14T08:21:50.063Z,51.93
2019-02-14T08:24:19.544Z,48.93
2019-02-14T08:26:48.712Z,51.40
2019-02-14T08:29:17.887Z,46.67
2019-02-14T08:31:47.402Z,55.80
2019-02-14T08:34:16.569Z,51.63
2019-02-14T08:36:46.077Z,51.40
2019-02-14T08:39:15.271Z,41.93
2019-02-14T08:41:45.500Z,42.33
2019-02-14T08:44:15.050Z,45.53
2019-02-14T08:46:44.190Z,44.30
2019-02-14T08:49:15.376Z,39.40
2019-02-14T08:51:44.968Z,47.53
2019-02-14T08:54:14.137Z,41.37
2019-02-14T08:56:43.317Z,40.00
2019-02-14T08:59:12.524Z,39.30
2019-02-14T09:01:41.721Z,40.37
2019-02-14T09:04:10.933Z,33.43
2019-02-14T09:06:40.478Z,40.70
2019-02-14T09:09:09.621Z,32.50
2019-02-14T09:11:39.064Z,41.20
2019-02-14T09:14:08.321Z,35.00
2019-02-14T09:16:37.449Z,31.93
2019-02-14T09:19:06.640Z,24.67
2019-02-14T09:21:35.815Z,28.73
2019-02-14T09:24:05.017Z,29.03
2019-02-14T09:26:34.151Z,30.47
2019-02-14T09:29:03.328Z,26.50
2019-02-14T09:31:32.492Z,26.10
2019-02-14T09:34:01.959Z,27.60
2019-02-14T09:36:31.462Z,24.87
2019-02-14T09:39:00.841Z,24.40
2019-02-14T09:41:30.377Z,25.73
2019-02-14T09:43:59.536Z,30.50
2019-02-14T09:46:28.749Z,24.27
2019-02-14T09:48:58.303Z,24.77
2019-02-14T09:51:27.576Z,24.03
2019-02-14T09:53:57.166Z,26.27
2019-02-14T09:56:26.397Z,29.72
2019-02-14T09:58:55.513Z,26.90
2019-02-14T10:01:24.668Z,24.20
2019-02-14T10:03:53.857Z,21.10
2019-02-14T10:06:23.002Z,22.43
2019-02-14T10:08:52.513Z,21.43
2019-02-14T10:11:22.241Z,19.20
2019-02-14T10:13:51.373Z,20.07
2019-02-14T10:16:20.797Z,22.07
2019-02-14T10:18:50.376Z,22.97
2019-02-14T10:21:19.570Z,26.83
2019-02-14T10:23:49.141Z,21.37
2019-02-14T10:26:18.298Z,22.37
2019-02-14T10:28:47.480Z,19.83
2019-02-14T10:31:17.074Z,19.53
2019-02-14T10:33:46.526Z,20.23
2019-02-14T10:36:15.679Z,24.27
2019-02-14T10:38:45.304Z,25.43
2019-02-14T10:41:14.435Z,22.97
2019-02-14T10:43:48.778Z,25.53
2019-02-14T10:46:15.253Z,26.20
2019-02-14T10:48:44.785Z,19.90
2019-02-14T10:51:14.672Z,23.13
2019-02-14T10:53:44.378Z,20.00
2019-02-14T10:56:13.504Z,22.07
2019-02-14T10:58:42.679Z,21.37
2019-02-14T11:01:12.219Z,16.80
2019-02-14T11:03:41.444Z,17.27
2019-02-14T11:06:11.248Z,16.43
2019-02-14T11:08:40.737Z,16.93
2019-02-14T11:11:11.702Z,16.67
2019-02-14T11:13:41.198Z,17.87
2019-02-14T11:16:10.380Z,18.30
2019-02-14T11:18:44.294Z,17.10
2019-02-14T11:21:11.135Z,17.50
2019-02-14T11:23:40.644Z,21.10
2019-02-14T11:26:09.772Z,20.05
2019-02-14T11:28:38.985Z,17.30
2019-02-14T11:31:08.178Z,16.17
2019-02-14T11:33:37.643Z,11.60
2019-02-14T11:36:06.857Z,16.70
2019-02-14T11:38:40.577Z,16.47
2019-02-14T11:41:07.513Z,16.60
2019-02-14T11:43:36.679Z,14.60
2019-02-14T11:46:05.859Z,17.50
2019-02-14T11:48:35.400Z,15.83
2019-02-14T11:51:04.926Z,18.17
2019-02-14T11:53:34.181Z,12.83
2019-02-14T11:56:03.411Z,17.07
2019-02-14T11:58:32.788Z,13.73
2019-02-14T12:01:03.181Z,12.77
2019-02-14T12:03:32.300Z,14.10
2019-02-14T12:06:01.881Z,12.47
2019-02-14T12:08:31.019Z,20.30
2019-02-14T12:11:01.628Z,12.30
2019-02-14T12:13:31.394Z,12.50
2019-02-14T12:16:00.589Z,10.35
2019-02-14T12:18:29.765Z,14.30
2019-02-14T12:20:59.197Z,11.10
2019-02-14T12:23:29.103Z,11.13
2019-02-14T12:25:58.274Z,11.97
2019-02-14T12:28:27.653Z,12.40
2019-02-14T12:30:57.140Z,9.70
2019-02-14T12:33:26.368Z,12.93
2019-02-14T12:35:55.531Z,11.77
2019-02-14T12:38:24.982Z,13.73
2019-02-14T12:40:54.187Z,9.13
2019-02-14T12:43:23.401Z,9.43
2019-02-14T12:45:52.916Z,8.27
2019-02-14T12:48:22.291Z,9.23
2019-02-14T12:50:51.475Z,11.08
2019-02-14T12:53:20.608Z,10.13
2019-02-14T12:55:50.177Z,10.57
2019-02-14T12:58:20.968Z,10.10
2019-02-14T13:00:50.174Z,9.00
2019-02-14T13:03:19.349Z,10.63
2019-02-14T13:05:48.771Z,9.97
2019-02-14T13:08:18.576Z,11.20
2019-02-14T13:10:47.783Z,8.93
2019-02-14T13:13:16.971Z,10.53
2019-02-14T13:15:46.553Z,10.23
2019-02-14T13:18:15.891Z,12.13
2019-02-14T13:20:45.051Z,9.80
2019-02-14T13:23:14.208Z,8.70
2019-02-14T13:25:43.470Z,11.20
2019-02-14T13:28:12.610Z,9.33
2019-02-14T13:30:41.794Z,7.60
2019-02-14T13:33:10.985Z,8.07
2019-02-14T13:35:41.633Z,8.30
2019-02-14T13:38:10.787Z,6.80
2019-02-14T13:40:39.975Z,8.80
2019-02-14T13:43:10.425Z,12.60
2019-02-14T13:45:40.176Z,9.80
2019-02-14T13:48:10.653Z,6.83
2019-02-14T13:50:39.807Z,9.63
2019-02-14T13:53:09.082Z,10.87
2019-02-14T13:55:38.710Z,11.83
2019-02-14T13:58:07.875Z,8.10
2019-02-14T14:00:37.201Z,8.03
2019-02-14T14:03:06.328Z,8.50
2019-02-14T14:05:35.482Z,7.97
2019-02-14T14:08:04.695Z,10.17
2019-02-14T14:10:33.833Z,8.97
2019-02-14T14:13:03.382Z,9.73
2019-02-14T14:15:32.551Z,11.50
2019-02-14T14:18:01.712Z,9.70
2019-02-14T14:20:30.933Z,7.33
2019-02-14T14:23:00.083Z,14.43
2019-02-14T14:25:29.581Z,9.50
2019-02-14T14:27:58.811Z,11.13
2019-02-14T14:30:28.300Z,9.23
2019-02-14T14:32:57.490Z,7.40
2019-02-14T14:35:27.005Z,9.13
2019-02-14T14:37:56.501Z,9.83
2019-02-14T14:40:25.880Z,8.30
2019-02-14T14:43:14.282Z,8.30
2019-02-14T14:46:01.423Z,8.05
2019-02-14T14:48:36.027Z,10.40
2019-02-14T14:51:05.734Z,13.77
2019-02-14T14:53:34.967Z,9.90
2019-02-14T14:56:04.525Z,9.17
2019-02-14T14:58:34.025Z,9.97
2019-02-14T15:01:03.572Z,8.70
2019-02-14T15:03:33.168Z,12.10
2019-02-14T15:06:02.624Z,10.93
2019-02-14T15:08:32.159Z,9.77
2019-02-14T15:11:01.680Z,13.77
2019-02-14T15:13:31.635Z,12.10
2019-02-14T15:16:01.492Z,10.90
2019-02-14T15:18:30.632Z,12.80
2019-02-14T15:21:00.306Z,12.33
2019-02-14T15:23:29.846Z,13.10
2019-02-14T15:25:59.018Z,11.60
2019-02-14T15:28:28.220Z,16.50
2019-02-14T15:30:57.706Z,13.07
2019-02-14T15:33:26.876Z,14.37
2019-02-14T15:35:56.368Z,12.47
2019-02-14T15:38:25.560Z,10.10
2019-02-14T15:40:54.776Z,9.90
2019-02-14T15:43:24.667Z,9.97
2019-02-14T15:45:53.963Z,13.33
2019-02-14T15:48:23.204Z,12.60
2019-02-14T15:50:54.419Z,13.47
2019-02-14T15:53:24.417Z,14.40
2019-02-14T15:55:53.533Z,15.03
2019-02-14T15:58:23.051Z,17.40
2019-02-14T16:00:54.207Z,14.43
2019-02-14T16:03:23.912Z,15.50
2019-02-14T16:05:53.458Z,82.70
2019-02-14T16:08:24.502Z,116.63
2019-02-14T16:10:55.904Z,54.10
2019-02-14T16:13:26.236Z,40.07
2019-02-14T16:15:58.294Z,22.17
2019-02-14T16:18:27.327Z,29.57
2019-02-14T16:20:56.524Z,27.70
2019-02-14T16:23:27.735Z,18.83
2019-02-14T16:25:57.487Z,16.37
2019-02-14T16:28:27.014Z,15.17
2019-02-14T16:30:56.912Z,14.47
2019-02-14T16:33:26.137Z,15.50
2019-02-14T16:35:55.331Z,11.97
2019-02-14T16:38:24.829Z,16.07
2019-02-14T16:40:54.004Z,17.97
2019-02-14T16:43:23.161Z,16.13
2019-02-14T16:45:52.872Z,15.97
2019-02-14T16:48:22.699Z,17.33
2019-02-14T16:50:52.558Z,17.03
2019-02-14T16:53:21.787Z,20.20
2019-02-14T16:55:51.015Z,25.37
2019-02-14T16:58:20.432Z,19.83
2019-02-14T17:00:49.569Z,18.53
2019-02-14T17:03:18.724Z,19.20
2019-02-14T17:05:47.939Z,18.20
2019-02-14T17:08:17.436Z,18.63
2019-02-14T17:10:46.961Z,16.25
2019-02-14T17:13:16.753Z,18.10
2019-02-14T17:15:46.247Z,18.40
2019-02-14T17:18:15.371Z,17.03
2019-02-14T17:20:44.908Z,12.43
2019-02-14T17:23:14.078Z,16.80
2019-02-14T17:25:43.267Z,17.47
2019-02-14T17:28:13.110Z,20.33
2019-02-14T17:30:42.284Z,16.90
2019-02-14T17:33:11.564Z,20.70
2019-02-14T17:35:41.780Z,26.07
2019-02-14T17:38:11.133Z,29.90
2019-02-14T17:40:46.094Z,26.03
2019-02-14T17:43:11.773Z,27.67
2019-02-14T17:45:42.235Z,29.17
2019-02-14T17:48:11.435Z,23.03
2019-02-14T17:50:40.761Z,27.00
2019-02-14T17:53:10.060Z,29.87
2019-02-14T17:55:39.552Z,26.00
2019-02-14T17:58:09.036Z,22.33
2019-02-14T18:00:40.335Z,25.73
2019-02-14T18:03:09.489Z,25.07
2019-02-14T18:05:39.997Z,26.37
2019-02-14T18:08:09.725Z,21.10
2019-02-14T18:10:39.111Z,19.90
2019-02-14T18:13:10.190Z,22.53
2019-02-14T18:15:39.370Z,22.43
2019-02-14T18:18:09.784Z,24.50
2019-02-14T18:20:39.736Z,38.40
2019-02-14T18:23:08.989Z,26.37
2019-02-14T18:25:38.141Z,26.03
2019-02-14T18:28:07.705Z,26.50
2019-02-14T18:30:37.121Z,39.83
2019-02-14T18:33:06.652Z,35.40
2019-02-14T18:35:36.536Z,30.90
2019-02-14T18:38:05.832Z,33.40
2019-02-14T18:40:35.348Z,34.80
2019-02-14T18:43:05.158Z,29.17
2019-02-14T18:45:35.056Z,36.30
2019-02-14T18:48:04.372Z,38.13
2019-02-14T18:50:33.499Z,52.63
2019-02-14T18:53:03.337Z,59.40
2019-02-14T18:55:33.026Z,51.10
2019-02-14T18:58:02.504Z,45.43
2019-02-14T19:00:32.446Z,53.33
2019-02-14T19:03:01.641Z,37.30
2019-02-14T19:05:31.566Z,44.93
2019-02-14T19:08:00.778Z,40.00
2019-02-14T19:10:29.906Z,35.83
2019-02-14T19:12:59.114Z,36.43
2019-02-14T19:15:28.302Z,36.30
2019-02-14T19:17:58.142Z,35.93
2019-02-14T19:20:27.653Z,28.27
2019-02-14T19:22:56.931Z,36.97
2019-02-14T19:25:29.401Z,32.10
2019-02-14T19:27:58.017Z,29.67
2019-02-14T19:30:28.234Z,32.40
2019-02-14T19:32:57.392Z,35.10
2019-02-14T19:35:26.641Z,30.10
2019-02-14T19:37:56.265Z,48.97
2019-02-14T19:40:25.407Z,35.17
2019-02-14T19:42:54.840Z,47.40
2019-02-14T19:45:24.388Z,52.80
2019-02-14T19:47:54.374Z,53.63
2019-02-14T19:50:23.875Z,52.23
2019-02-14T19:52:53.173Z,29.77
2019-02-14T19:55:22.763Z,37.87
2019-02-14T19:57:52.216Z,30.90
2019-02-14T20:00:21.412Z,53.40
2019-02-14T20:02:50.904Z,63.47
2019-02-14T20:05:21.319Z,59.03
2019-02-14T20:07:50.829Z,46.43
2019-02-14T20:10:20.097Z,61.73
2019-02-14T20:12:49.278Z,59.87
2019-02-14T20:15:18.486Z,53.40
2019-02-14T20:17:47.668Z,45.83
2019-02-14T20:20:17.245Z,40.87
2019-02-14T20:22:46.428Z,43.23
2019-02-14T20:25:16.445Z,40.43
2019-02-14T20:27:45.641Z,42.50
2019-02-14T20:30:15.350Z,39.23
2019-02-14T20:32:44.691Z,41.40
2019-02-14T20:35:14.250Z,38.70
2019-02-14T20:37:43.748Z,36.47
2019-02-14T20:40:13.272Z,56.67
2019-02-14T20:42:42.528Z,57.70
2019-02-14T20:45:12.545Z,52.87
2019-02-14T20:47:41.758Z,50.27
2019-02-14T20:50:12.450Z,40.53
2019-02-14T20:52:41.745Z,37.30
2019-02-14T20:55:12.939Z,39.37
2019-02-14T20:57:42.520Z,35.10
2019-02-14T21:00:34.389Z,30.93
2019-02-14T21:03:03.571Z,33.47
2019-02-14T21:05:33.026Z,27.90
2019-02-14T21:08:02.536Z,30.70
2019-02-14T21:10:32.036Z,30.40
2019-02-14T21:13:01.393Z,39.83
2019-02-14T21:15:30.567Z,35.15
2019-02-14T21:18:00.147Z,56.20
2019-02-14T21:20:30.097Z,33.30
2019-02-14T21:23:00.053Z,41.90
2019-02-14T21:25:29.265Z,36.50
2019-02-14T21:27:58.432Z,46.37
2019-02-14T21:30:27.643Z,38.87
2019-02-14T21:32:56.829Z,36.53
2019-02-14T21:35:27.107Z,35.87
2019-02-14T21:37:56.332Z,33.70
2019-02-14T21:40:25.784Z,33.70
2019-02-14T21:42:55.030Z,36.60
2019-02-14T21:45:24.204Z,35.50
2019-02-14T21:47:53.490Z,32.60
2019-02-14T21:50:22.696Z,31.73
2019-02-14T21:52:51.827Z,60.47
2019-02-14T21:55:21.026Z,45.40
2019-02-14T21:57:50.616Z,58.60
2019-02-14T22:00:20.526Z,69.27
2019-02-14T22:02:49.692Z,54.73
2019-02-14T22:05:24.394Z,42.40
2019-02-14T22:07:50.164Z,32.37
2019-02-14T22:10:19.406Z,31.17
2019-02-14T22:12:48.887Z,39.40
2019-02-14T22:15:18.366Z,30.97
2019-02-14T22:17:47.597Z,33.20
2019-02-14T22:20:16.716Z,25.15
2019-02-14T22:22:45.920Z,34.07
2019-02-14T22:25:15.109Z,33.27
2019-02-14T22:27:44.313Z,35.60
2019-02-14T22:30:15.874Z,45.17
2019-02-14T22:32:45.384Z,38.40
2019-02-14T22:35:14.707Z,51.42
2019-02-14T22:37:44.276Z,38.50
2019-02-14T22:40:13.524Z,29.63
2019-02-14T22:42:47.045Z,32.53
2019-02-14T22:45:14.194Z,22.07
2019-02-14T22:47:44.311Z,24.20
2019-02-14T22:50:13.503Z,22.53
2019-02-14T22:52:42.683Z,23.57
2019-02-14T22:55:11.868Z,27.20
2019-02-14T22:57:41.459Z,24.17
2019-02-14T23:00:30.014Z,23.27
2019-02-14T23:02:59.186Z,27.20
2019-02-14T23:05:28.773Z,24.67
2019-02-14T23:07:58.290Z,22.13
2019-02-14T23:10:28.235Z,25.45
2019-02-14T23:12:57.412Z,23.60
2019-02-14T23:15:26.909Z,22.87
2019-02-14T23:17:56.213Z,22.80
2019-02-14T23:20:25.590Z,21.30
2019-02-14T23:22:54.750Z,23.33
2019-02-14T23:25:23.909Z,20.10
2019-02-14T23:27:53.454Z,19.77
2019-02-14T23:30:22.671Z,17.73
2019-02-14T23:32:51.867Z,20.63
2019-02-14T23:35:22.635Z,20.53
2019-02-14T23:37:51.803Z,23.13
2019-02-14T23:40:21.030Z,27.37
2019-02-14T23:42:50.869Z,19.10
2019-02-14T23:45:20.208Z,20.20
2019-02-14T23:47:49.376Z,24.60
2019-02-14T23:50:18.875Z,22.50
2019-02-14T23:52:48.735Z,18.07
2019-02-14T23:55:18.575Z,17.63
2019-02-14T23:57:48.412Z,21.67
